• Join FlightAware (Why Join?)
  • Login
  • US Flag 
11:34PM EDT


 

Airport Tracker/Info


-or-


 

Live Flight TrackerFlight Track Log ✈ ASQ6187 ✈ 26-Sep-2013 ✈ KFSD - KDEN

Flight Track Log - Related Links

Times and Time Zones

All times are in EDT time to prevent confusion due to time zone crossing. See the ASQ6187 flight status page for this flight to view local times or setup timezone preferences in your user account.

Time Position Orientation Groundspeed Altitude Reporting Facility
EDT Latitude Longitude Course Direction KTS MPH feet Rate Location/Type
01:17PM 43.5575 -96.7256 225° Southwest 154 177 2,400  Level Minneapolis Center
01:18PM 43.5133 -96.7633 212° Southwest 193 222 4,500 2,460 Climbing Minneapolis Center
01:19PM 43.4369 -96.7775 188° South 215 247 7,600 2,520 Climbing Minneapolis Center
01:20PM 43.4060 -97.1689 234° Southwest  Level Estimated
01:20PM 43.3706 -96.7783 181° South 227 261 9,800  Level Minneapolis Center
01:21PM 43.3435 -97.2562 225° Southwest  Level FlightAware Approximate
01:21PM 43.2975 -96.8136 199° South 272 313 10,700  Level Minneapolis Center
01:22PM 43.2809 -97.3434 225° Southwest  Level FlightAware Approximate
01:22PM 43.2425 -96.8997 229° Southwest 297 342 12,400  Level Minneapolis Center
01:23PM 43.1964 -97.0086 240° Southwest 324 373 14,200 1,620 Climbing Minneapolis Center
01:24PM 43.1497 -97.1169 239° Southwest 329 379 15,800 1,560 Climbing Minneapolis Center
01:25PM 43.0928 -97.2522 240° Southwest 340 391 17,500 1,560 Climbing Minneapolis Center
01:26PM 43.0442 -97.3650 239° Southwest 344 396 19,100 1,740 Climbing Minneapolis Center
01:27PM 42.9975 -97.4769 240° Southwest 342 394 21,100 1,740 Climbing Minneapolis Center
01:28PM 42.9511 -97.5844 240° Southwest 332 382 22,800 1,620 Climbing Minneapolis Center
01:29PM 42.9058 -97.6922 240° Southwest 329 379 24,500 1,680 Climbing Minneapolis Center
01:30PM 42.8617 -97.7964 240° Southwest 322 371 26,300 1,800 Climbing Minneapolis Center
01:31PM 42.8086 -97.9192 240° Southwest 316 364 28,300 1,740 Climbing Minneapolis Center
01:32PM 42.7633 -98.0203 239° Southwest 314 361 30,000 1,620 Climbing Minneapolis Center
01:33PM 42.7208 -98.1175 239° Southwest 307 353 31,700 1,440 Climbing Minneapolis Center
01:34PM 42.6800 -98.2147 240° Southwest 300 345 33,100 1,020 Climbing Minneapolis Center
01:35PM 42.6350 -98.3172 239° Southwest 298 343 33,900 420 Climbing Minneapolis Center
01:36PM 42.5889 -98.4214 239° Southwest 314 361 34,000  Climbing Minneapolis Center
01:37PM 42.5369 -98.5364 239° Southwest 346 398 34,000  Level Minneapolis Center
01:38PM 42.4761 -98.6742 239° Southwest 378 435 34,000  Level Minneapolis Center
01:39PM 42.4192 -98.8022 239° Southwest 394 453 34,000  Level Minneapolis Center
01:40PM 42.3625 -98.9308 239° Southwest 399 459 34,000  Level Minneapolis Center
01:41PM 42.3056 -99.0581 239° Southwest 397 457 34,000  Level Minneapolis Center
01:42PM 42.2586 -99.1586 238° Southwest 396 456 34,000  Level Denver Center
01:43PM 42.2022 -99.2858 239° Southwest 396 456 34,000  Level Denver Center
01:44PM 42.1547 -99.4181 244° Southwest 395 455 34,000  Level Denver Center
01:45PM 42.1075 -99.5506 244° Southwest 394 453 34,000  Level Denver Center
01:46PM 42.0508 -99.7103 245° Southwest 395 455 34,000  Level Denver Center
01:47PM 42.0017 -99.8492 245° Southwest 398 458 34,000  Level Denver Center
01:48PM 41.9567 -99.9761 245° Southwest 395 455 34,000  Level Denver Center
01:49PM 41.9033 -100.1244 244° Southwest 396 456 34,000  Level Denver Center
01:50PM 41.8581 -100.2517 244° Southwest 397 457 34,000  Level Denver Center
01:51PM 41.8036 -100.3975 243° Southwest 393 452 34,000  Level Denver Center
01:53PM 41.7583 -100.5239 244° Southwest 394 453 34,000  Level Denver Center
01:54PM 41.7053 -100.6678 244° Southwest 389 448 34,000  Level Denver Center
01:55PM 41.6603 -100.7922 244° Southwest 389 448 34,000  Level Denver Center
01:56PM 41.6069 -100.9364 244° Southwest 388 447 34,000  Level Denver Center
01:57PM 41.5611 -101.0594 244° Southwest 389 448 34,000  Level Denver Center
01:58PM 41.5081 -101.2011 243° Southwest 386 444 34,000  Level Denver Center
01:59PM 41.4619 -101.3247 244° Southwest 388 447 34,000  Level Denver Center
02:00PM 41.4078 -101.4664 243° Southwest 386 444 34,000  Level Denver Center
02:01PM 41.3619 -101.5872 243° Southwest 385 443 34,000  Level Denver Center
02:02PM 41.3083 -101.7300 243° Southwest 387 445 34,000  Level Denver Center
02:03PM 41.2619 -101.8511 243° Southwest 386 444 34,000  Level Denver Center
02:04PM 41.2150 -101.9714 243° Southwest 385 443 34,000  Level Denver Center
02:05PM 41.1619 -102.1103 243° Southwest 380 437 34,000  Level Denver Center
02:06PM 41.1153 -102.2278 242° Southwest 379 436 34,000  Level Denver Center
02:07PM 41.0619 -102.3675 243° Southwest 381 438 34,000  Level Denver Center
02:08PM 41.0169 -102.4856 243° Southwest 379 436 34,000  Level Denver Center
02:09PM 40.9606 -102.6250 242° Southwest 384 442 34,000  Level Denver Center
02:10PM 40.9156 -102.7422 243° Southwest 376 433 34,000  Level Denver Center
02:11PM 40.8608 -102.8814 243° Southwest 380 437 34,000  Level Denver Center
02:12PM 40.8097 -103.0092 242° Southwest 372 428 34,000  Level Denver Center
02:13PM 40.7686 -103.1133 243° Southwest 371 427 34,000  Level Denver Center
02:14PM 40.7111 -103.2556 242° Southwest 368 423 34,000 -600 Level Denver Center
02:15PM 40.6631 -103.3769 242° Southwest 373 429 32,800 -1,500 Descending Denver Center
02:16PM 40.6117 -103.5008 241° Southwest 385 443 30,900 -2,100 Descending Denver Center
02:17PM 40.5608 -103.6275 242° Southwest 391 450 28,500 -2,280 Descending Denver Center
02:18PM 40.5103 -103.7519 242° Southwest 389 448 26,200 -2,400 Descending Denver Center
02:19PM 40.4442 -103.8869 237° Southwest 368 423 23,600 -2,100 Descending Denver Center
02:20PM 40.3792 -103.9750 226° Southwest 335 386 21,900 -1,380 Descending Denver Center
02:21PM 40.3197 -104.0444 222° Southwest 285 328 20,800 -1,380 Descending Denver Center
02:23PM 40.2514 -104.1178 219° Southwest 294 338 19,100 -1,680 Descending Denver Center
02:24PM 40.1894 -104.1850 220° Southwest 288 331 17,400 -1,440 Descending Denver Center
02:25PM 40.1225 -104.2581 220° Southwest 290 334 16,100 -1,200 Descending Denver Center
02:26PM 40.0633 -104.3225 220° Southwest 280 322 15,000 -960 Descending Denver Center
02:27PM 40.0014 -104.3892 220° Southwest 269 310 14,200 -960 Descending Denver Center
02:28PM 39.9528 -104.4419 220° Southwest 233 268 13,100 -1,140 Descending Denver Center
02:29PM 39.8958 -104.4983 217° Southwest 237 273 11,900 -1,020 Descending Denver Center
02:30PM 39.8314 -104.5003 181° South 230 265 11,000 -540 Descending Denver Center
02:31PM 39.7686 -104.5017 181° South 226 260 10,800 -780 Descending Denver Center
02:32PM 39.7036 -104.5025 181° South 216 249 9,400 -1,020 Descending Denver Center
02:33PM 39.6517 -104.5228 197° South 216 249 8,700 -780 Descending Denver Center
02:34PM 39.6658 -104.6022 283° West 229 264 7,900 -840 Descending Denver Center
02:35PM 39.7208 -104.6361 335° Northwest 225 259 7,000 -720 Descending Denver Center
02:36PM 39.7731 -104.6422 355° North 168 193 6,500 -660 Descending Denver Center
02:37PM 39.8172 -104.6417 North 160 184 5,700 -540 Descending Denver Center
02:38PM 39.8539 -104.6411 North 133 153 5,400 -300 Descending Denver Center